createdAt,value
2022-08-21T16:37:14.493Z,21580.34
2022-08-21T16:39:53.323Z,21541.72
2022-08-21T16:42:26.951Z,21525.47
2022-08-21T16:44:57.115Z,21527.50
2022-08-21T16:47:27.091Z,21517.31
2022-08-21T16:49:55.566Z,21543.75
2022-08-21T16:52:25.148Z,21572.22
2022-08-21T16:54:53.205Z,21558.00
2022-08-21T16:57:21.734Z,21507.16
2022-08-21T16:59:50.451Z,21545.78
2022-08-21T17:02:30.814Z,21517.31
2022-08-21T17:04:58.947Z,21501.06
2022-08-21T17:07:28.363Z,21470.56
2022-08-21T17:09:56.685Z,21474.63
2022-08-21T17:12:25.312Z,21476.66
2022-08-21T17:14:53.534Z,21436.00
2022-08-21T17:17:21.951Z,21456.34
2022-08-21T17:19:50.045Z,21427.88
2022-08-21T17:22:18.223Z,21425.84
2022-08-21T17:24:47.679Z,21411.59
2022-08-21T17:27:15.888Z,21383.13
2022-08-21T17:29:44.013Z,21372.97
2022-08-21T17:32:20.047Z,21370.94
2022-08-21T17:34:48.351Z,21356.69
2022-08-21T17:37:16.902Z,21344.50
2022-08-21T17:39:45.044Z,21332.31
2022-08-21T17:42:15.835Z,21342.47
2022-08-21T17:44:47.042Z,21324.19
2022-08-21T17:47:15.700Z,21287.56
2022-08-21T17:49:43.923Z,21265.22
2022-08-21T17:52:12.211Z,21257.09
2022-08-21T17:54:41.104Z,21248.94
2022-08-21T17:57:10.060Z,21242.84
2022-08-21T17:59:39.683Z,21202.19
2022-08-21T18:02:12.588Z,21210.31
2022-08-21T18:04:50.465Z,21208.28
2022-08-21T18:07:32.070Z,21167.63
2022-08-21T18:10:01.778Z,21169.66
2022-08-21T18:12:31.289Z,21110.69
2022-08-21T18:15:03.054Z,21104.59
2022-08-21T18:17:33.647Z,21086.31
2022-08-21T18:20:02.654Z,21090.38
2022-08-21T18:22:30.789Z,21039.53
2022-08-21T18:24:58.982Z,21031.41
2022-08-21T18:27:29.723Z,20996.84
2022-08-21T18:30:02.729Z,20962.28
2022-08-21T18:32:32.327Z,20964.31
2022-08-21T18:35:03.511Z,20952.13
2022-08-21T18:37:32.034Z,20948.06
2022-08-21T18:40:00.880Z,20903.34
2022-08-21T18:42:35.557Z,20909.44
2022-08-21T18:45:13.313Z,20901.31
2022-08-21T18:47:47.031Z,20899.28
2022-08-21T18:50:19.094Z,20976.53
2022-08-21T18:52:52.612Z,20935.88
2022-08-21T18:55:23.029Z,20992.78
2022-08-21T18:57:52.941Z,20976.53
2022-08-21T19:00:27.706Z,20933.81
2022-08-21T19:02:56.299Z,20939.94
2022-08-21T19:05:25.607Z,20962.28
2022-08-21T19:07:56.104Z,20909.44
2022-08-21T19:10:28.847Z,20929.75
2022-08-21T19:13:00.591Z,20897.25
2022-08-21T19:15:31.157Z,20874.88
2022-08-21T19:18:00.531Z,20903.34
2022-08-21T19:20:34.486Z,20874.88
2022-08-21T19:23:05.157Z,20864.72
2022-08-21T19:25:35.747Z,20846.41
2022-08-21T19:28:11.070Z,20858.59
2022-08-21T19:30:47.922Z,20830.16
2022-08-21T19:33:26.247Z,20838.28
2022-08-21T19:35:54.405Z,20870.81
2022-08-21T19:38:22.993Z,20815.91
2022-08-21T19:40:52.250Z,20815.91
2022-08-21T19:43:22.523Z,20864.72
2022-08-21T19:45:56.476Z,20817.94
2022-08-21T19:48:26.683Z,20815.91
2022-08-21T19:50:55.117Z,20773.22
2022-08-21T19:53:23.260Z,20777.28
2022-08-21T19:55:51.380Z,20779.31
2022-08-21T19:58:34.534Z,20801.69
2022-08-21T20:01:16.379Z,20789.50
2022-08-21T20:03:54.200Z,20801.69
2022-08-21T20:06:25.427Z,20773.22
2022-08-21T20:08:56.044Z,20754.94
2022-08-21T20:11:31.962Z,20734.59
2022-08-21T20:14:02.021Z,20750.88
2022-08-21T20:16:32.194Z,20736.63
2022-08-21T20:19:03.245Z,20718.34
2022-08-21T20:21:32.102Z,20708.19
2022-08-21T20:24:15.156Z,20708.19
2022-08-21T20:29:37.263Z,20659.38
2022-08-21T20:32:12.117Z,20693.94
2022-08-21T20:34:41.151Z,20649.22
2022-08-21T20:37:13.425Z,20649.22
2022-08-21T20:39:50.531Z,20679.72
2022-08-21T20:42:18.899Z,20657.34
2022-08-21T20:44:47.501Z,20671.59
2022-08-21T20:47:17.464Z,20622.81
2022-08-21T20:49:53.517Z,20614.66
2022-08-21T20:52:26.681Z,20588.25
2022-08-21T20:55:02.114Z,20604.50
2022-08-21T20:57:43.493Z,20578.09
2022-08-21T21:00:16.329Z,20574.00
2022-08-21T21:02:53.739Z,20588.25
2022-08-21T21:05:28.060Z,20569.94
2022-08-21T21:08:13.646Z,20543.53
2022-08-21T21:10:51.457Z,20580.13
2022-08-21T21:13:26.903Z,20598.41
2022-08-21T21:16:01.027Z,20567.91
2022-08-21T21:18:37.586Z,20529.28
2022-08-21T21:21:19.449Z,20537.44
2022-08-21T21:23:57.972Z,20529.28
2022-08-21T21:26:35.317Z,20513.03
2022-08-21T21:29:13.031Z,20504.91
2022-08-21T21:31:42.614Z,20517.09
2022-08-21T21:34:17.020Z,20447.97
2022-08-21T21:36:56.164Z,20508.97
2022-08-21T21:39:36.387Z,20478.47
2022-08-21T21:45:22.721Z,20502.88
2022-08-21T21:48:12.596Z,20460.19
2022-08-21T21:51:01.066Z,20435.78
2022-08-21T21:54:05.383Z,20456.13
2022-08-21T21:56:48.315Z,20443.91
2022-08-21T21:59:42.321Z,20399.19
2022-08-21T22:02:27.134Z,20409.38
2022-08-21T22:05:07.272Z,20378.88
2022-08-21T22:07:44.807Z,20389.03
2022-08-21T22:10:30.662Z,20372.78
2022-08-21T22:13:26.358Z,20401.22
2022-08-21T22:15:56.487Z,20380.91
2022-08-21T22:18:32.815Z,20389.03
2022-08-21T22:21:05.812Z,20397.16
2022-08-21T22:23:43.033Z,20389.03
2022-08-21T22:26:18.786Z,20350.41
2022-08-21T22:28:51.868Z,20360.59
2022-08-21T22:31:24.326Z,20313.84
2022-08-21T22:34:17.676Z,20309.75
2022-08-21T22:36:55.713Z,20307.72
2022-08-21T22:39:38.760Z,20289.44
2022-08-21T22:42:13.645Z,20256.91
2022-08-21T22:44:53.812Z,20238.63
2022-08-21T22:47:26.659Z,20224.41
2022-08-21T22:50:03.847Z,20252.84
2022-08-21T22:52:38.140Z,20202.03
2022-08-21T22:55:25.736Z,20208.13
2022-08-21T22:58:12.336Z,20228.47
2022-08-21T23:00:53.211Z,20226.44
2022-08-21T23:03:32.706Z,20208.13
2022-08-21T23:06:13.034Z,20208.13
2022-08-21T23:08:44.206Z,20195.94
2022-08-21T23:11:20.873Z,20210.16
2022-08-21T23:13:54.170Z,20191.88
2022-08-21T23:16:47.351Z,20159.34
2022-08-21T23:19:38.464Z,20169.53
2022-08-21T23:22:28.779Z,20102.44
2022-08-21T23:25:13.160Z,20167.47
2022-08-21T23:28:04.233Z,20139.03
2022-08-21T23:30:44.092Z,20094.31
2022-08-21T23:33:41.683Z,20122.78
2022-08-21T23:36:45.811Z,20086.19
2022-08-21T23:39:36.363Z,20118.69
2022-08-21T23:42:30.321Z,20086.19
2022-08-21T23:45:14.376Z,20057.72
2022-08-21T23:47:58.364Z,20055.69
2022-08-21T23:50:35.343Z,20045.53
2022-08-21T23:53:22.563Z,20008.94
2022-08-21T23:56:21.182Z,20045.53
2022-08-21T23:59:10.503Z,19984.56
